createdAt,value
2023-02-11T00:02:09.923Z,103442.19
2023-02-11T00:04:36.481Z,103445.63
2023-02-11T00:07:03.008Z,103439.59
2023-02-11T00:09:31.814Z,103435.25
2023-02-11T00:11:58.708Z,103430.91
2023-02-11T00:14:25.208Z,103434.41
2023-02-11T00:16:52.363Z,103441.31
2023-02-11T00:19:19.025Z,103434.41
2023-02-11T00:21:45.499Z,103434.41
2023-02-11T00:24:11.973Z,103435.25
2023-02-11T00:26:38.762Z,103438.72
2023-02-11T00:29:05.824Z,103436.13
2023-02-11T00:31:32.908Z,103438.75
2023-02-11T00:33:59.661Z,103441.34
2023-02-11T00:36:29.355Z,103435.25
2023-02-11T00:38:57.402Z,103443.94
2023-02-11T00:41:25.007Z,103432.66
2023-02-11T00:43:51.923Z,103435.25
2023-02-11T00:46:21.954Z,103444.78
2023-02-11T00:48:49.107Z,103447.41
2023-02-11T00:51:15.669Z,103441.34
2023-02-11T00:53:42.439Z,103445.63
2023-02-11T00:56:09.552Z,103440.47
2023-02-11T00:58:36.731Z,103437.84
2023-02-11T01:01:03.867Z,103433.53
2023-02-11T01:03:33.078Z,103424.88
2023-02-11T01:05:59.637Z,103424.00
2023-02-11T01:08:26.260Z,103428.34
2023-02-11T01:11:01.837Z,103409.28
2023-02-11T01:13:30.575Z,103404.09
2023-02-11T01:15:57.681Z,103411.91
2023-02-11T01:18:24.714Z,103413.63
2023-02-11T01:20:52.379Z,103412.78
2023-02-11T01:23:19.322Z,103396.31
2023-02-11T01:25:46.073Z,103381.59
2023-02-11T01:28:29.678Z,103379.00
2023-02-11T01:30:56.677Z,103391.13
2023-02-11T01:33:24.182Z,103393.72
2023-02-11T01:35:51.346Z,103406.72
2023-02-11T01:38:21.754Z,103417.09
2023-02-11T01:40:54.760Z,103424.88
2023-02-11T01:43:22.158Z,103424.88
2023-02-11T01:45:57.868Z,103423.16
2023-02-11T01:48:34.288Z,103421.41
2023-02-11T01:51:09.912Z,103418.84
2023-02-11T01:53:58.509Z,103417.09
2023-02-11T01:56:48.854Z,103419.69
2023-02-11T01:59:24.615Z,103417.97
2023-02-11T02:01:59.027Z,103430.94
2023-02-11T02:04:33.374Z,103428.34
2023-02-11T02:07:06.524Z,103436.16
2023-02-11T02:09:40.172Z,103434.41
2023-02-11T02:12:06.712Z,103427.50
2023-02-11T02:14:33.463Z,103421.44
2023-02-11T02:17:00.288Z,103422.28
2023-02-11T02:20:11.387Z,103417.97
2023-02-11T02:22:43.715Z,103411.91
2023-02-11T02:25:28.644Z,103413.66
2023-02-11T02:28:18.695Z,103416.22
2023-02-11T02:31:26.042Z,103404.09
2023-02-11T02:34:24.378Z,103417.06
2023-02-11T02:37:21.617Z,103417.94
2023-02-11T02:39:50.325Z,103404.09
2023-02-11T02:42:18.710Z,103394.56
2023-02-11T02:44:50.454Z,103391.09
2023-02-11T02:47:17.114Z,103388.53
2023-02-11T02:49:43.712Z,103394.56
2023-02-11T02:52:20.842Z,103391.97
2023-02-11T02:55:05.354Z,103398.91
2023-02-11T02:57:49.827Z,103408.44
2023-02-11T03:00:36.276Z,103410.16
2023-02-11T03:03:26.479Z,103401.50
2023-02-11T03:06:04.548Z,103402.38
2023-02-11T03:08:59.734Z,103392.84
2023-02-11T03:11:29.308Z,103387.66
2023-02-11T03:13:57.417Z,103385.06
2023-02-11T03:16:27.247Z,103387.66
2023-02-11T03:19:01.579Z,103373.81
2023-02-11T03:21:30.973Z,103368.63
2023-02-11T03:24:03.085Z,103371.22
2023-02-11T03:26:53.044Z,103371.22
2023-02-11T03:29:36.324Z,103362.56
2023-02-11T03:32:16.029Z,103365.16
2023-02-11T03:35:08.003Z,103365.16
2023-02-11T03:37:55.649Z,103366.03
2023-02-11T03:40:26.174Z,103372.06
2023-02-11T03:43:30.981Z,103363.44
2023-02-11T03:45:59.093Z,103361.72
2023-02-11T03:48:33.542Z,103349.59
2023-02-11T03:51:03.248Z,103348.72
2023-02-11T03:53:30.287Z,103350.44
2023-02-11T03:56:00.271Z,103358.22
2023-02-11T03:58:27.086Z,103356.50
2023-02-11T04:00:53.882Z,103364.28
2023-02-11T04:03:20.438Z,103363.41
2023-02-11T04:05:47.346Z,103366.00
2023-02-11T04:08:13.937Z,103366.00
2023-02-11T04:10:40.632Z,103375.53
2023-02-11T04:13:07.164Z,103377.25
2023-02-11T04:15:33.652Z,103377.25
2023-02-11T04:18:00.155Z,103376.41
2023-02-11T04:20:26.847Z,103379.00
2023-02-11T04:22:53.278Z,103374.69
2023-02-11T04:25:19.924Z,103380.75
2023-02-11T04:27:46.426Z,103379.88
2023-02-11T04:30:13.480Z,103382.47
2023-02-11T04:32:39.961Z,103377.28
2023-02-11T04:35:06.983Z,103389.38
2023-02-11T04:37:33.578Z,103387.69
2023-02-11T04:40:00.128Z,103381.59
2023-02-11T04:42:26.658Z,103389.38
2023-02-11T04:44:53.102Z,103374.66
2023-02-11T04:47:19.816Z,103383.34
2023-02-11T04:49:46.557Z,103385.06
2023-02-11T04:52:12.985Z,103389.41
2023-02-11T04:54:48.484Z,103383.34
2023-02-11T04:57:15.018Z,103379.88
2023-02-11T04:59:41.999Z,103376.44
2023-02-11T05:02:09.517Z,103379.03
2023-02-11T05:04:36.035Z,103382.47
2023-02-11T05:07:02.825Z,103381.59
2023-02-11T05:09:29.534Z,103385.06
2023-02-11T05:11:56.099Z,103391.13
2023-02-11T05:14:25.679Z,103387.69
2023-02-11T05:16:52.249Z,103388.53
2023-02-11T05:19:21.997Z,103385.06
2023-02-11T05:22:01.833Z,103388.53
2023-02-11T05:24:29.846Z,103385.94
2023-02-11T05:26:56.542Z,103385.06
2023-02-11T05:29:23.288Z,103386.78
2023-02-11T05:31:49.964Z,103387.66
2023-02-11T05:34:16.599Z,103390.28
2023-02-11T05:36:43.055Z,103382.47
2023-02-11T05:39:09.699Z,103381.59
2023-02-11T05:41:36.336Z,103381.63
2023-02-11T05:44:02.960Z,103376.41
2023-02-11T05:46:29.540Z,103373.84
2023-02-11T05:48:56.929Z,103374.69
2023-02-11T05:51:25.232Z,103374.69
2023-02-11T05:53:51.767Z,103378.13
2023-02-11T05:56:18.223Z,103380.75
2023-02-11T05:58:44.589Z,103386.81
2023-02-11T06:01:11.352Z,103386.81
2023-02-11T06:03:38.126Z,103383.34
2023-02-11T06:06:05.036Z,103381.59
2023-02-11T06:08:31.493Z,103386.78
2023-02-11T06:10:57.970Z,103385.06
2023-02-11T06:13:24.427Z,103394.59
2023-02-11T06:15:58.736Z,103404.97
2023-02-11T06:18:25.740Z,103394.59
2023-02-11T06:20:52.920Z,103391.13
2023-02-11T06:23:19.826Z,103392.00
2023-02-11T06:25:47.041Z,103394.59
2023-02-11T06:28:13.847Z,103395.44
2023-02-11T06:30:40.908Z,103399.78
2023-02-11T06:33:07.382Z,103396.31
2023-02-11T06:35:35.536Z,103392.00
2023-02-11T06:38:02.165Z,103394.59
2023-02-11T06:40:28.670Z,103384.16
2023-02-11T06:42:55.267Z,103391.97
2023-02-11T06:45:21.718Z,103385.94
2023-02-11T06:47:48.155Z,103390.25
2023-02-11T06:50:15.191Z,103385.06
2023-02-11T06:52:41.783Z,103388.53
2023-02-11T06:55:08.756Z,103380.72
2023-02-11T06:57:35.894Z,103385.91
2023-02-11T07:00:02.887Z,103386.78
2023-02-11T07:02:29.644Z,103389.38
2023-02-11T07:04:58.391Z,103390.22
2023-02-11T07:07:25.108Z,103399.75
2023-02-11T07:09:51.596Z,103404.06
2023-02-11T07:12:18.316Z,103408.41
2023-02-11T07:14:44.759Z,103404.97
2023-02-11T07:17:11.131Z,103412.75
2023-02-11T07:19:38.164Z,103414.47
2023-02-11T07:22:04.638Z,103407.53
2023-02-11T07:24:31.388Z,103412.72
2023-02-11T07:27:24.167Z,103419.66
2023-02-11T07:29:53.694Z,103417.06
2023-02-11T07:32:27.977Z,103424.84
2023-02-11T07:34:54.534Z,103426.56
2023-02-11T07:37:21.871Z,103428.28
2023-02-11T07:39:50.962Z,103436.97
2023-02-11T07:42:17.689Z,103437.84
2023-02-11T07:45:40.891Z,103436.06
2023-02-11T07:47:42.808Z,103443.88
2023-02-11T07:50:10.663Z,103437.81
2023-02-11T07:52:37.481Z,103437.81
2023-02-11T07:55:07.119Z,103437.81
2023-02-11T07:57:33.657Z,103428.28
2023-02-11T08:00:02.405Z,103425.69
2023-02-11T08:02:31.152Z,103430.03
2023-02-11T08:05:00.713Z,103439.56
2023-02-11T08:07:29.600Z,103436.97
2023-02-11T08:09:57.630Z,103434.34
2023-02-11T08:12:28.837Z,103433.47
2023-02-11T08:14:58.813Z,103446.47
2023-02-11T08:17:26.492Z,103444.72
2023-02-11T08:19:53.934Z,103447.31
2023-02-11T08:25:31.170Z,103442.97
2023-02-11T08:28:05.173Z,103442.97
2023-02-11T08:30:32.967Z,103452.50
2023-02-11T08:33:15.165Z,103448.16
2023-02-11T08:35:55.043Z,103446.44
2023-02-11T08:38:45.761Z,103450.75
2023-02-11T08:41:45.775Z,103459.41
2023-02-11T08:48:51.361Z,103462.88
2023-02-11T08:51:42.941Z,103459.38
2023-02-11T08:54:11.422Z,103454.16
2023-02-11T08:56:38.845Z,103458.50
2023-02-11T08:59:07.318Z,103461.06
2023-02-11T09:01:34.342Z,103464.50
2023-02-11T09:04:02.263Z,103470.56
2023-02-11T09:06:29.471Z,103471.38
2023-02-11T09:09:00.134Z,103473.13
2023-02-11T09:11:32.984Z,103479.16
2023-02-11T09:14:01.083Z,103480.00
2023-02-11T09:16:32.253Z,103493.84
2023-02-11T09:19:00.671Z,103486.88
2023-02-11T09:21:29.245Z,103489.47
2023-02-11T09:23:56.273Z,103484.25
2023-02-11T09:26:29.212Z,103489.44
2023-02-11T09:29:00.380Z,103486.78
2023-02-11T09:31:29.595Z,103498.06
2023-02-11T09:34:00.504Z,103494.59
2023-02-11T09:36:30.000Z,103505.00
2023-02-11T09:39:00.740Z,103491.94
2023-02-11T09:41:47.133Z,103501.47
2023-02-11T09:44:29.852Z,103500.59
2023-02-11T09:46:59.922Z,103498.81
2023-02-11T09:49:53.813Z,103506.56
2023-02-11T09:52:46.927Z,103507.41
2023-02-11T09:55:55.999Z,103511.72
2023-02-11T09:58:36.852Z,103510.81
2023-02-11T10:01:22.130Z,103516.84
2023-02-11T10:03:48.637Z,103513.38
2023-02-11T10:06:31.245Z,103526.38
2023-02-11T10:09:22.051Z,103526.34
2023-02-11T10:12:26.099Z,103530.66
2023-02-11T10:15:16.160Z,103532.31
2023-02-11T10:17:51.822Z,103539.22
2023-02-11T10:20:55.514Z,103543.56
2023-02-11T10:23:29.851Z,103546.91
2023-02-11T10:25:59.045Z,103543.28
2023-02-11T10:28:34.732Z,103544.13
2023-02-11T10:31:09.819Z,103554.44
2023-02-11T10:33:45.461Z,103562.19
2023-02-11T10:36:13.544Z,103552.66
2023-02-11T10:38:40.743Z,103556.91
2023-02-11T10:41:13.899Z,103562.09
2023-02-11T10:43:42.694Z,103560.31
2023-02-11T10:46:18.604Z,103562.09
2023-02-11T10:48:51.592Z,103563.84
2023-02-11T10:51:28.450Z,103552.63
2023-02-11T10:54:03.826Z,103557.91
2023-02-11T10:56:34.373Z,103550.06
2023-02-11T10:59:04.842Z,103557.03
2023-02-11T11:01:56.347Z,103555.28
2023-02-11T11:04:40.428Z,103554.38
2023-02-11T11:07:12.141Z,103569.09
2023-02-11T11:09:59.212Z,103562.91
2023-02-11T11:12:27.931Z,103575.75
2023-02-11T11:14:58.786Z,103574.69
2023-02-11T11:17:30.349Z,103575.53
2023-02-11T11:20:23.140Z,103579.97
2023-02-11T11:22:52.603Z,103580.03
2023-02-11T11:25:25.124Z,103583.50
2023-02-11T11:27:54.180Z,103587.06
2023-02-11T11:30:21.015Z,103591.44
2023-02-11T11:32:47.609Z,103593.13
2023-02-11T11:35:25.295Z,103593.03
2023-02-11T11:38:04.049Z,103594.59
2023-02-11T11:40:33.176Z,103593.63
2023-02-11T11:43:22.651Z,103594.38
2023-02-11T11:45:57.727Z,103593.44
2023-02-11T11:51:35.018Z,103581.94
2023-02-11T11:54:06.556Z,103576.72
2023-02-11T11:56:37.984Z,103566.28
2023-02-11T11:59:14.000Z,103571.66
2023-02-11T12:02:02.428Z,103569.06
2023-02-11T12:04:42.786Z,103569.88
2023-02-11T12:07:40.278Z,103567.06
2023-02-11T12:10:31.819Z,103550.50
2023-02-11T12:13:28.572Z,103553.88
2023-02-11T12:16:33.729Z,103555.63
2023-02-11T12:19:34.478Z,103555.75
2023-02-11T12:22:36.634Z,103564.34
2023-02-11T12:25:25.222Z,103564.25
2023-02-11T12:28:04.118Z,103567.69
2023-02-11T12:31:01.181Z,103566.00
2023-02-11T12:33:55.563Z,103557.41
2023-02-11T12:36:42.765Z,103561.84
2023-02-11T12:39:32.221Z,103560.19
2023-02-11T12:42:32.621Z,103560.09
2023-02-11T12:45:11.344Z,103559.91
2023-02-11T12:47:56.059Z,103565.88
2023-02-11T12:50:45.713Z,103563.19
2023-02-11T12:53:32.285Z,103565.75
2023-02-11T12:56:05.472Z,103567.59
2023-02-11T12:58:45.081Z,103564.25
2023-02-11T13:01:39.770Z,103562.53
2023-02-11T13:04:13.660Z,103556.38
2023-02-11T13:06:54.886Z,103554.38
2023-02-11T13:09:35.657Z,103558.59
2023-02-11T13:12:22.585Z,103564.53
2023-02-11T13:14:52.179Z,103561.66
2023-02-11T13:17:36.732Z,103565.19
2023-02-11T13:20:18.085Z,103561.47
2023-02-11T13:22:57.235Z,103550.84
2023-02-11T13:25:40.761Z,103549.34
2023-02-11T13:28:27.571Z,103559.66
2023-02-11T13:31:02.600Z,103550.19
2023-02-11T13:33:36.463Z,103552.09
2023-02-11T13:36:04.752Z,103550.41
2023-02-11T13:38:32.633Z,103541.66
2023-02-11T13:41:41.319Z,103547.78
2023-02-11T13:44:10.561Z,103539.97
2023-02-11T13:46:55.684Z,103546.06
2023-02-11T13:49:42.232Z,103546.03
2023-02-11T13:52:18.651Z,103548.63
2023-02-11T13:54:51.066Z,103544.19
2023-02-11T13:57:20.747Z,103546.81
2023-02-11T14:00:30.447Z,103548.56
2023-02-11T14:03:30.756Z,103550.50
2023-02-11T14:06:27.829Z,103553.06
2023-02-11T14:09:09.530Z,103561.78
2023-02-11T14:12:29.943Z,103563.72
2023-02-11T14:15:07.870Z,103553.41
2023-02-11T14:17:34.826Z,103552.50
2023-02-11T14:20:04.593Z,103550.69
2023-02-11T14:22:43.043Z,103555.06
2023-02-11T14:25:21.828Z,103555.97
2023-02-11T14:27:56.696Z,103557.63
2023-02-11T14:30:35.564Z,103556.72
2023-02-11T14:33:20.322Z,103558.38
2023-02-11T14:36:10.157Z,103561.81
2023-02-11T14:38:58.436Z,103564.38
2023-02-11T14:41:39.898Z,103565.19
2023-02-11T14:44:19.356Z,103563.47
2023-02-11T14:46:48.703Z,103565.25
2023-02-11T14:49:29.117Z,103567.91
2023-02-11T14:52:03.879Z,103563.63
2023-02-11T14:54:31.257Z,103561.88
2023-02-11T14:57:30.677Z,103562.91
2023-02-11T15:00:03.215Z,103559.53
2023-02-11T15:02:34.007Z,103565.75
2023-02-11T15:05:22.637Z,103573.53
2023-02-11T15:07:55.699Z,103570.94
2023-02-11T15:10:41.439Z,103564.84
2023-02-11T15:13:09.058Z,103569.19
2023-02-11T15:15:40.557Z,103564.88
2023-02-11T15:18:09.508Z,103567.50
2023-02-11T15:20:36.061Z,103576.22
2023-02-11T15:23:07.200Z,103584.94
2023-02-11T15:25:34.437Z,103581.50
2023-02-11T15:28:01.045Z,103585.94
2023-02-11T15:30:34.002Z,103581.66
2023-02-11T15:33:03.317Z,103585.25
2023-02-11T15:35:39.712Z,103581.84
2023-02-11T15:38:07.467Z,103587.16
2023-02-11T15:40:36.886Z,103593.28
2023-02-11T15:43:06.992Z,103585.53
2023-02-11T15:45:36.913Z,103587.38
2023-02-11T15:48:20.121Z,103593.59
2023-02-11T15:50:55.552Z,103597.97
2023-02-11T15:53:27.533Z,103596.28
2023-02-11T15:56:17.999Z,103598.97
2023-02-11T15:58:47.777Z,103599.84
2023-02-11T16:01:14.636Z,103599.06
2023-02-11T16:03:43.283Z,103599.13
2023-02-11T16:06:35.013Z,103605.22
2023-02-11T16:09:10.999Z,103606.13
2023-02-11T16:11:54.847Z,103601.84
2023-02-11T16:14:27.765Z,103607.94
2023-02-11T16:16:57.845Z,103607.13
2023-02-11T16:19:26.495Z,103605.44
2023-02-11T16:21:55.203Z,103610.72
2023-02-11T16:24:33.781Z,103612.53
2023-02-11T16:27:02.577Z,103603.84
2023-02-11T16:29:35.234Z,103616.97
2023-02-11T16:32:26.771Z,103616.97
2023-02-11T16:34:55.364Z,103618.75
2023-02-11T16:37:21.826Z,103620.50
2023-02-11T16:39:48.255Z,103615.31
2023-02-11T16:42:15.736Z,103628.34
2023-02-11T16:44:42.141Z,103623.16
2023-02-11T16:47:23.917Z,103624.91
2023-02-11T16:49:50.696Z,103628.38
2023-02-11T16:52:18.212Z,103637.97
2023-02-11T16:54:44.797Z,103636.22
2023-02-11T16:57:16.079Z,103643.19
2023-02-11T16:59:43.357Z,103644.97
2023-02-11T17:02:18.477Z,103651.03
2023-02-11T17:04:45.464Z,103654.56
2023-02-11T17:07:12.569Z,103659.78
2023-02-11T17:09:39.183Z,103670.22
2023-02-11T17:12:06.307Z,103671.97
2023-02-11T17:14:32.741Z,103661.53
2023-02-11T17:16:59.164Z,103672.84
2023-02-11T17:19:25.582Z,103670.22
2023-02-11T17:21:53.084Z,103674.59
2023-02-11T17:24:21.579Z,103679.81
2023-02-11T17:26:49.599Z,103677.22
2023-02-11T17:29:18.907Z,103676.41
2023-02-11T17:31:45.490Z,103677.25
2023-02-11T17:34:12.358Z,103677.28
2023-02-11T17:36:41.204Z,103678.19
2023-02-11T17:39:08.458Z,103679.09
2023-02-11T17:41:38.244Z,103682.56
2023-02-11T17:44:05.892Z,103688.66
2023-02-11T17:46:34.303Z,103684.34
2023-02-11T17:49:01.965Z,103691.31
2023-02-11T17:51:36.929Z,103689.56
2023-02-11T17:54:06.589Z,103695.66
2023-02-11T17:56:35.671Z,103697.41
2023-02-11T17:59:02.904Z,103699.16
2023-02-11T18:01:31.477Z,103690.50
2023-02-11T18:03:58.090Z,103694.81
2023-02-11T18:06:24.802Z,103700.91
2023-02-11T18:08:51.652Z,103699.19
2023-02-11T18:11:18.724Z,103699.22
2023-02-11T18:13:45.489Z,103702.69
2023-02-11T18:16:15.572Z,103699.22
2023-02-11T18:18:43.531Z,103714.00
2023-02-11T18:21:18.823Z,103708.81
2023-02-11T18:23:46.293Z,103717.47
2023-02-11T18:26:14.479Z,103716.66
2023-02-11T18:28:43.896Z,103716.63
2023-02-11T18:31:12.357Z,103715.78
2023-02-11T18:33:40.110Z,103720.13
2023-02-11T18:36:11.892Z,103721.00
2023-02-11T18:38:39.229Z,103722.72
2023-02-11T18:41:07.136Z,103726.22
2023-02-11T18:43:34.403Z,103738.34
2023-02-11T18:46:06.228Z,103733.16
2023-02-11T18:48:32.984Z,103737.50
2023-02-11T18:51:00.212Z,103741.84
2023-02-11T18:53:26.777Z,103733.16
2023-02-11T18:55:54.117Z,103730.56
2023-02-11T18:58:23.724Z,103735.75
2023-02-11T19:00:50.562Z,103735.75
2023-02-11T19:03:17.088Z,103738.38
2023-02-11T19:05:47.284Z,103742.75
2023-02-11T19:08:14.487Z,103740.97
2023-02-11T19:10:47.832Z,103743.59
2023-02-11T19:13:14.751Z,103745.34
2023-02-11T19:15:42.751Z,103737.50
2023-02-11T19:18:09.851Z,103738.38
2023-02-11T19:20:39.503Z,103747.06
2023-02-11T19:23:05.985Z,103744.47
2023-02-11T19:25:32.879Z,103750.56
2023-02-11T19:28:00.284Z,103753.16
2023-02-11T19:30:27.524Z,103752.28
2023-02-11T19:32:56.986Z,103760.97
2023-02-11T19:35:24.287Z,103757.50
2023-02-11T19:37:50.783Z,103760.13
2023-02-11T19:40:17.579Z,103771.41
2023-02-11T19:42:44.946Z,103767.94
2023-02-11T19:45:11.451Z,103772.25
2023-02-11T19:47:38.026Z,103780.06
2023-02-11T19:50:05.651Z,103772.25
2023-02-11T19:52:32.148Z,103773.13
2023-02-11T19:54:59.274Z,103774.88
2023-02-11T19:57:25.933Z,103780.97
2023-02-11T19:59:54.748Z,103781.84
2023-02-11T20:02:21.290Z,103775.75
2023-02-11T20:04:48.449Z,103786.19
2023-02-11T20:07:15.050Z,103794.84
2023-02-11T20:09:42.503Z,103796.63
2023-02-11T20:12:09.290Z,103801.81
2023-02-11T20:14:35.753Z,103792.28
2023-02-11T20:17:02.477Z,103790.53
2023-02-11T20:19:30.524Z,103787.91
2023-02-11T20:21:57.114Z,103797.47
2023-02-11T20:24:24.510Z,103801.84
2023-02-11T20:26:55.178Z,103800.94
2023-02-11T20:29:22.344Z,103807.91
2023-02-11T20:31:50.219Z,103807.91
2023-02-11T20:34:17.898Z,103804.44
2023-02-11T20:36:51.420Z,103815.72
2023-02-11T20:39:19.128Z,103818.34
2023-02-11T20:41:46.124Z,103815.72
2023-02-11T20:44:12.936Z,103820.97
2023-02-11T20:46:43.510Z,103815.72
2023-02-11T20:49:12.451Z,103820.06
2023-02-11T20:51:39.332Z,103823.53
2023-02-11T20:54:06.360Z,103813.13
2023-02-11T20:56:36.658Z,103827.03
2023-02-11T20:59:04.386Z,103826.16
2023-02-11T21:01:43.603Z,103840.06
2023-02-11T21:04:16.159Z,103836.59
2023-02-11T21:06:45.809Z,103840.03
2023-02-11T21:09:15.816Z,103836.59
2023-02-11T21:11:43.048Z,103835.72
2023-02-11T21:14:10.268Z,103842.66
2023-02-11T21:16:37.128Z,103844.41
2023-02-11T21:19:03.973Z,103848.75
2023-02-11T21:21:30.734Z,103847.03
2023-02-11T21:23:58.408Z,103847.00
2023-02-11T21:26:24.991Z,103851.38
2023-02-11T21:28:52.132Z,103847.88
2023-02-11T21:31:24.938Z,103850.50
2023-02-11T21:33:53.021Z,103855.72
2023-02-11T21:36:20.253Z,103859.19
2023-02-11T21:38:47.040Z,103864.38
2023-02-11T21:41:13.540Z,103864.38
2023-02-11T21:43:40.042Z,103861.78
2023-02-11T21:46:09.001Z,103860.91
2023-02-11T21:48:51.316Z,103862.63
2023-02-11T21:51:21.131Z,103865.25
2023-02-11T21:53:47.909Z,103871.34
2023-02-11T21:56:17.211Z,103866.13
2023-02-11T21:58:45.080Z,103867.00
2023-02-11T22:01:17.791Z,103859.16
2023-02-11T22:03:45.589Z,103876.53
2023-02-11T22:06:14.840Z,103877.41
2023-02-11T22:08:41.748Z,103880.03
2023-02-11T22:11:11.108Z,103874.81
2023-02-11T22:13:37.711Z,103881.78
2023-02-11T22:16:07.404Z,103883.47
2023-02-11T22:18:33.952Z,103884.34
2023-02-11T22:21:02.699Z,103887.84
2023-02-11T22:23:29.976Z,103884.34
2023-02-11T22:25:57.339Z,103887.84
2023-02-11T22:28:25.909Z,103893.06
2023-02-11T22:30:54.252Z,103882.63
2023-02-11T22:33:21.027Z,103882.63
2023-02-11T22:35:47.438Z,103891.31
2023-02-11T22:38:13.785Z,103886.13
2023-02-11T22:40:43.964Z,103887.84
2023-02-11T22:43:10.456Z,103891.31
2023-02-11T22:45:36.904Z,103885.22
2023-02-11T22:48:03.589Z,103887.84
2023-02-11T22:50:30.210Z,103888.72
2023-02-11T22:52:56.747Z,103886.13
2023-02-11T22:55:23.223Z,103893.91
2023-02-11T22:57:49.608Z,103889.56
2023-02-11T23:00:17.132Z,103892.19
2023-02-11T23:02:43.656Z,103891.31
2023-02-11T23:05:10.102Z,103894.78
2023-02-11T23:07:36.569Z,103893.94
2023-02-11T23:10:03.767Z,103891.31
2023-02-11T23:12:30.250Z,103899.13
2023-02-11T23:14:56.719Z,103895.66
2023-02-11T23:17:24.508Z,103892.19
2023-02-11T23:19:51.111Z,103893.06
2023-02-11T23:22:17.540Z,103902.59
2023-02-11T23:24:43.970Z,103894.78
2023-02-11T23:27:10.396Z,103893.06
2023-02-11T23:29:36.894Z,103898.25
2023-02-11T23:32:03.462Z,103901.75
2023-02-11T23:34:29.912Z,103900.00
2023-02-11T23:36:57.635Z,103895.66
2023-02-11T23:39:24.112Z,103905.19
2023-02-11T23:41:52.650Z,103908.69
2023-02-11T23:44:19.050Z,103904.34
2023-02-11T23:46:46.210Z,103895.66
2023-02-11T23:49:12.970Z,103899.13
2023-02-11T23:51:39.434Z,103899.13
2023-02-11T23:54:05.981Z,103897.41
2023-02-11T23:56:32.484Z,103895.63
2023-02-11T23:58:59.327Z,103900.88
